Kezdőlap
METAR-TAF:

METAR-TAF

Repülőterek :

Gagetown, Új Brunswick, Kanada

földrajzi szélesség: 45-50N, földrajzi hosszúság: 066-26W, magasság: 51 m

METAR: hiányzik

Idő: 16:33 (19:33 UTC)

Előrejelzés

A jelentés 28 órával és 53 perccel ezelõtt készült, 14:40 UTC
Az előrejelzés 17-én 15 óra UTC és 18-én 03 óra UTC között érvényes
Északkeleti szél 5 kt
Látótávolság: 10 km
Kevés felhő 15000 lábon
17-én 16 óra UTC és 17-én 18 óra UTC között fokozatosan kialakuló
Kelet-északkeleti szél 8 kt
18-én 0000 órától UTC szerint
Kelet-északkeleti szél 8 kt
Látótávolság: 10 km
Szórványos felhőzet 5000 lábon
Szakadozott felhőzet 15000 lábon

TAF: CYCX 171440Z 1715/1803 04005KT P6SM FEW150 BECMG 1716/1718 06008KT FM180000 06008KT P6SM SCT050 BKN150 RMK NXT FCST BY 172100Z

Meteorológiai megfigyelések és előrejelzések több, mint 4000 repülőtéren (METAR és TAF jelentéseket).

A térképen piros és sárga pontok jelzik az elérhető meteorológiai állomásokat.

Mozgassa az egeret a pont fölött, hogy megjelenjen az állomás neve.

Azután kattintson az időjárási megfigyelések és előrejelzések megtekintéséhez.

A térkép megváltoztatása: kattintson a fekete keresztel jelölt zöld gombra ráközelítéshez, a vonallal jelölt zöld gombra távolításhoz, vagy a zöld nyilakra a szomszédos térképek eléréséhez.


METAR-TAF: